Time;durP1;ratioP1;P1;durP2;ratioP2;P2;SDS_P1;SDS_P2;PMS_P1;PMS_P2;Temp;Humidity;BMP_temperature;BMP_pressure;BME280_temperature;BME280_humidity;BME280_pressure;Samples;Min_cycle;Max_cycle;Signal;HPM_P1;HPM_P2
2022/05/31 00:01:52;;;;;;;;;;;15.50;92.80;;;;;;4987639;28;19906;-84
2022/05/31 00:04:18;;;;;;;;;;;15.50;93.10;;;;;;4987021;28;19907;-84
2022/05/31 00:06:44;;;;;;;;;;;15.50;93.00;;;;;;4986702;28;20217;-84
2022/05/31 00:09:13;;;;;;;;;;;15.40;92.90;;;;;;4987038;28;19906;-83
2022/05/31 00:11:41;;;;;;;;;;;15.40;93.10;;;;;;4986897;28;20098;-84
2022/05/31 00:14:07;;;;;;;;;;;15.40;93.10;;;;;;4986257;28;19945;-84
2022/05/31 00:16:32;;;;;;;;;;;15.40;93.20;;;;;;4985695;28;19931;-84
2022/05/31 00:18:58;;;;;;;;;;;15.30;93.30;;;;;;4986651;28;19971;-84
2022/05/31 00:21:27;;;;;;;;;;;15.30;93.30;;;;;;4986464;28;19906;-83
2022/05/31 00:23:53;;;;;;;;;;;15.30;93.50;;;;;;4986482;28;20194;-84
2022/05/31 00:26:19;;;;;;;;;;;15.30;93.40;;;;;;4985298;28;20000;-84
2022/05/31 00:28:44;;;;;;;;;;;15.30;93.60;;;;;;4986345;28;19945;-84
2022/05/31 00:31:10;;;;;;;;;;;15.20;93.40;;;;;;4984794;28;20157;-84
2022/05/31 00:33:35;;;;;;;;;;;15.20;93.70;;;;;;4985368;28;19906;-84
2022/05/31 00:36:01;;;;;;;;;;;15.20;93.60;;;;;;4985640;28;20118;-83
2022/05/31 00:38:26;;;;;;;;;;;15.10;93.60;;;;;;4985674;28;20177;-84
2022/05/31 00:40:52;;;;;;;;;;;15.10;93.80;;;;;;4986036;28;19957;-84
2022/05/31 00:43:25;;;;;;;;;;;15.10;93.90;;;;;;4985795;28;19907;-84
2022/05/31 00:46:00;;;;;;;;;;;15.00;93.90;;;;;;4986431;28;19910;-84
2022/05/31 00:48:46;;;;;;;;;;;15.10;93.80;;;;;;4986075;28;19907;-84
2022/05/31 00:51:13;;;;;;;;;;;15.00;93.90;;;;;;4986112;28;19913;-84
2022/05/31 00:53:41;;;;;;;;;;;14.90;94.20;;;;;;4986561;28;19906;-84
2022/05/31 00:56:27;;;;;;;;;;;14.90;94.30;;;;;;4986450;28;19906;-84
2022/05/31 00:58:56;;;;;;;;;;;14.90;94.30;;;;;;4986002;28;20110;-84
2022/05/31 01:01:22;;;;;;;;;;;14.90;94.30;;;;;;4985147;28;19998;-83
2022/05/31 01:03:47;;;;;;;;;;;14.90;94.20;;;;;;4985682;28;19914;-84
2022/05/31 01:06:13;;;;;;;;;;;15.00;94.20;;;;;;4986374;28;19942;-84
2022/05/31 01:08:44;;;;;;;;;;;15.10;94.20;;;;;;4986433;28;19914;-84
2022/05/31 01:11:10;;;;;;;;;;;15.10;94.00;;;;;;4986648;28;19945;-84
2022/05/31 01:13:36;;;;;;;;;;;15.10;93.90;;;;;;4986326;28;20126;-84
2022/05/31 01:16:07;;;;;;;;;;;15.00;94.10;;;;;;4986094;28;19945;-84
2022/05/31 01:18:33;;;;;;;;;;;15.00;94.30;;;;;;4986129;28;19909;-84
2022/05/31 01:21:00;;;;;;;;;;;15.00;94.20;;;;;;4986334;28;19971;-84
2022/05/31 01:23:27;;;;;;;;;;;15.00;94.20;;;;;;4986581;28;19914;-84
2022/05/31 01:26:07;;;;;;;;;;;15.00;94.20;;;;;;4985825;28;19954;-84
2022/05/31 01:28:33;;;;;;;;;;;14.90;94.30;;;;;;4986105;28;20190;-84
2022/05/31 01:31:17;;;;;;;;;;;14.90;94.20;;;;;;4986215;28;19906;-84
2022/05/31 01:34:01;;;;;;;;;;;14.80;94.30;;;;;;4985549;28;19929;-84
2022/05/31 01:36:30;;;;;;;;;;;14.80;94.30;;;;;;4984965;28;19986;-84
2022/05/31 01:39:04;;;;;;;;;;;14.70;94.40;;;;;;4984567;28;20131;-84
2022/05/31 01:41:38;;;;;;;;;;;14.70;94.30;;;;;;4984915;28;19918;-84
2022/05/31 01:44:05;;;;;;;;;;;14.60;94.40;;;;;;4984663;28;20178;-84
2022/05/31 01:46:33;;;;;;;;;;;14.60;94.40;;;;;;4984693;28;20358;-84
2022/05/31 01:49:00;;;;;;;;;;;14.50;94.50;;;;;;4984201;28;19906;-84
2022/05/31 01:51:25;;;;;;;;;;;14.50;94.40;;;;;;4984096;28;19906;-84
2022/05/31 01:53:52;;;;;;;;;;;14.50;94.60;;;;;;4983838;28;19977;-84
2022/05/31 01:56:18;;;;;;;;;;;14.40;94.50;;;;;;4984893;28;20212;-84
2022/05/31 01:58:47;;;;;;;;;;;14.50;94.40;;;;;;4984543;28;19914;-84
2022/05/31 02:01:13;;;;;;;;;;;14.40;94.30;;;;;;4984726;28;19929;-84
2022/05/31 02:03:40;;;;;;;;;;;14.40;94.40;;;;;;4984832;28;20158;-84
2022/05/31 02:06:21;;;;;;;;;;;14.40;94.30;;;;;;4984944;28;20202;-84
2022/05/31 02:08:47;;;;;;;;;;;14.40;94.40;;;;;;4983719;28;19906;-84
2022/05/31 02:11:12;;;;;;;;;;;14.40;94.50;;;;;;4985190;28;19914;-84
2022/05/31 02:13:38;;;;;;;;;;;14.30;94.40;;;;;;4984338;28;19977;-84
2022/05/31 02:16:03;;;;;;;;;;;14.30;94.70;;;;;;4985229;28;19906;-84
2022/05/31 02:19:15;;;;;;;;;;;14.20;94.50;;;;;;4985443;28;19916;-84
2022/05/31 02:21:14;;;;;;;;;;;14.20;94.70;;;;;;4985213;28;19907;-84
2022/05/31 02:23:40;;;;;;;;;;;14.20;94.60;;;;;;4985446;28;20245;-84
2022/05/31 02:26:05;;;;;;;;;;;14.20;94.50;;;;;;4985360;28;19910;-84
2022/05/31 02:28:31;;;;;;;;;;;14.20;94.50;;;;;;4985083;28;19906;-84
2022/05/31 02:30:56;;;;;;;;;;;14.20;94.50;;;;;;4984956;28;19907;-84
2022/05/31 02:33:22;;;;;;;;;;;14.20;94.60;;;;;;4984378;28;20114;-84
2022/05/31 02:35:47;;;;;;;;;;;14.10;94.60;;;;;;4984487;28;19914;-84
2022/05/31 02:38:13;;;;;;;;;;;14.10;94.60;;;;;;4983627;28;20206;-84
2022/05/31 02:40:39;;;;;;;;;;;14.00;94.70;;;;;;4984287;28;19914;-84
2022/05/31 02:43:04;;;;;;;;;;;14.00;94.70;;;;;;4983620;28;19906;-84
2022/05/31 02:45:30;;;;;;;;;;;14.00;94.70;;;;;;4984366;28;20005;-84
2022/05/31 02:47:55;;;;;;;;;;;14.00;94.70;;;;;;4983868;28;19914;-84
2022/05/31 02:50:21;;;;;;;;;;;13.90;94.60;;;;;;4983431;28;19906;-84
2022/05/31 02:52:46;;;;;;;;;;;13.90;94.60;;;;;;4983576;28;19953;-84
2022/05/31 02:55:12;;;;;;;;;;;13.90;94.70;;;;;;4984377;28;20270;-83
2022/05/31 02:57:37;;;;;;;;;;;13.90;94.70;;;;;;4984287;28;19961;-84
2022/05/31 03:00:03;;;;;;;;;;;13.90;94.60;;;;;;4983346;28;20016;-84
2022/05/31 03:02:29;;;;;;;;;;;13.90;94.70;;;;;;4983746;28;19945;-84
2022/05/31 03:04:55;;;;;;;;;;;13.90;94.70;;;;;;4983994;28;19906;-84
2022/05/31 03:07:21;;;;;;;;;;;13.80;94.80;;;;;;4983886;28;19913;-84
2022/05/31 03:09:46;;;;;;;;;;;13.80;94.70;;;;;;4984126;28;19906;-84
2022/05/31 03:12:16;;;;;;;;;;;13.70;94.80;;;;;;4986364;28;20097;-84
2022/05/31 03:14:42;;;;;;;;;;;13.70;95.00;;;;;;4987620;28;19933;-84
2022/05/31 03:17:10;;;;;;;;;;;13.70;95.00;;;;;;4986743;28;19987;-84
2022/05/31 03:19:39;;;;;;;;;;;13.70;95.10;;;;;;4986771;28;19957;-84
2022/05/31 03:22:07;;;;;;;;;;;13.70;94.70;;;;;;4987524;28;19945;-84
2022/05/31 03:24:38;;;;;;;;;;;13.60;95.00;;;;;;4988288;28;20229;-84
2022/05/31 03:27:05;;;;;;;;;;;13.60;94.80;;;;;;4988324;28;20090;-84
2022/05/31 03:29:31;;;;;;;;;;;13.70;94.90;;;;;;4987972;28;20194;-84
2022/05/31 03:31:57;;;;;;;;;;;13.70;94.90;;;;;;4987799;28;19906;-84
2022/05/31 03:34:22;;;;;;;;;;;13.70;94.90;;;;;;4988144;28;20018;-84
2022/05/31 03:36:48;;;;;;;;;;;13.70;94.60;;;;;;4988029;28;19937;-84
2022/05/31 03:39:13;;;;;;;;;;;13.70;94.60;;;;;;4988065;28;19906;-84
2022/05/31 03:41:39;;;;;;;;;;;13.60;94.50;;;;;;4987451;28;19965;-84
2022/05/31 03:44:05;;;;;;;;;;;13.60;94.70;;;;;;4987733;28;19945;-84
2022/05/31 03:46:30;;;;;;;;;;;13.60;94.70;;;;;;4987919;28;19906;-84
2022/05/31 03:48:56;;;;;;;;;;;13.60;94.70;;;;;;4987834;28;19906;-84
2022/05/31 03:51:21;;;;;;;;;;;13.60;95.00;;;;;;4987994;28;19978;-84
2022/05/31 03:53:47;;;;;;;;;;;13.60;94.80;;;;;;4987745;28;19912;-84
2022/05/31 03:56:13;;;;;;;;;;;13.50;94.90;;;;;;4987529;28;19906;-84
2022/05/31 03:58:39;;;;;;;;;;;13.50;94.90;;;;;;4987462;28;19973;-84
2022/05/31 04:01:05;;;;;;;;;;;13.40;95.00;;;;;;4986965;28;19953;-84
2022/05/31 04:03:30;;;;;;;;;;;13.40;94.90;;;;;;4987042;28;20094;-84
2022/05/31 04:05:56;;;;;;;;;;;13.40;95.10;;;;;;4987467;28;19944;-84
2022/05/31 04:08:21;;;;;;;;;;;13.40;95.00;;;;;;4987641;28;20138;-84
2022/05/31 04:10:47;;;;;;;;;;;13.40;94.90;;;;;;4987342;28;19949;-84
2022/05/31 04:13:13;;;;;;;;;;;13.40;95.00;;;;;;4987687;28;19906;-83
2022/05/31 04:15:39;;;;;;;;;;;13.40;95.20;;;;;;4987304;28;19906;-84
2022/05/31 04:18:05;;;;;;;;;;;13.40;95.30;;;;;;4986719;28;19920;-84
2022/05/31 04:20:31;;;;;;;;;;;13.30;95.10;;;;;;4986946;28;19960;-84
2022/05/31 04:25:41;;;;;;;;;;;13.30;95.30;;;;;;4986738;28;20098;-84
2022/05/31 04:28:07;;;;;;;;;;;13.30;95.10;;;;;;4986670;28;19933;-84
2022/05/31 04:30:32;;;;;;;;;;;13.30;95.20;;;;;;4986700;28;19910;-84
2022/05/31 04:32:58;;;;;;;;;;;13.20;95.20;;;;;;4986768;28;19906;-84
2022/05/31 04:35:23;;;;;;;;;;;13.20;95.10;;;;;;4986598;28;19906;-84
2022/05/31 04:37:49;;;;;;;;;;;13.20;95.30;;;;;;4985878;28;20009;-84
2022/05/31 04:40:14;;;;;;;;;;;13.20;95.30;;;;;;4985879;28;20102;-84
2022/05/31 04:42:42;;;;;;;;;;;13.20;95.40;;;;;;4985456;28;20190;-84
2022/05/31 04:45:08;;;;;;;;;;;13.30;95.40;;;;;;4986293;28;19914;-84
2022/05/31 04:47:33;;;;;;;;;;;13.20;95.40;;;;;;4984830;28;19910;-84
2022/05/31 04:49:59;;;;;;;;;;;13.20;95.40;;;;;;4985097;28;19906;-84
2022/05/31 04:52:25;;;;;;;;;;;13.20;95.30;;;;;;4985372;28;20091;-84
2022/05/31 04:54:50;;;;;;;;;;;13.20;95.40;;;;;;4984575;28;20139;-84
2022/05/31 04:57:16;;;;;;;;;;;13.20;95.20;;;;;;4984680;28;19941;-84
2022/05/31 04:59:41;;;;;;;;;;;13.30;95.30;;;;;;4985491;28;19906;-84
2022/05/31 05:02:07;;;;;;;;;;;13.30;95.50;;;;;;4984788;28;19906;-84
2022/05/31 05:04:33;;;;;;;;;;;13.30;95.50;;;;;;4985215;28;19974;-84
2022/05/31 05:06:59;;;;;;;;;;;13.30;95.50;;;;;;4985010;28;20354;-84
2022/05/31 05:09:24;;;;;;;;;;;13.30;95.30;;;;;;4985499;28;19907;-84
2022/05/31 05:11:50;;;;;;;;;;;13.30;95.40;;;;;;4986366;28;19930;-84
2022/05/31 05:14:15;;;;;;;;;;;13.40;95.60;;;;;;4985864;28;19912;-84
2022/05/31 05:16:41;;;;;;;;;;;13.40;95.50;;;;;;4985938;28;19953;-84
2022/05/31 05:19:06;;;;;;;;;;;13.40;95.60;;;;;;4985968;28;19953;-84
2022/05/31 05:21:32;;;;;;;;;;;13.40;95.60;;;;;;4985101;28;19983;-84
2022/05/31 05:23:58;;;;;;;;;;;13.40;95.50;;;;;;4984619;28;20105;-84
2022/05/31 05:26:23;;;;;;;;;;;13.50;95.50;;;;;;4985961;28;19942;-83
2022/05/31 05:31:35;;;;;;;;;;;13.50;95.30;;;;;;4985873;28;19913;-84
2022/05/31 05:34:01;;;;;;;;;;;13.60;95.50;;;;;;4985394;28;20170;-84
2022/05/31 05:36:26;;;;;;;;;;;13.60;95.50;;;;;;4985954;28;20106;-84
2022/05/31 05:38:52;;;;;;;;;;;13.70;95.20;;;;;;4985792;28;19913;-84
2022/05/31 05:41:19;;;;;;;;;;;13.80;95.30;;;;;;4985752;28;19918;-84
2022/05/31 05:43:44;;;;;;;;;;;13.80;95.20;;;;;;4985793;28;19936;-84
2022/05/31 05:46:11;;;;;;;;;;;14.00;95.10;;;;;;4985747;28;19906;-84
2022/05/31 05:48:37;;;;;;;;;;;14.10;94.80;;;;;;4985621;28;19906;-84
2022/05/31 05:51:09;;;;;;;;;;;14.20;94.70;;;;;;4985636;28;19907;-84
2022/05/31 05:53:35;;;;;;;;;;;14.40;94.60;;;;;;4985695;28;19906;-84
2022/05/31 05:56:00;;;;;;;;;;;14.60;94.00;;;;;;4985631;28;19913;-84
2022/05/31 05:58:26;;;;;;;;;;;14.70;94.10;;;;;;4985104;28;20032;-84
2022/05/31 06:00:52;;;;;;;;;;;14.80;93.80;;;;;;4984175;28;19907;-84
2022/05/31 06:03:20;;;;;;;;;;;14.90;93.80;;;;;;4983947;28;19918;-84
2022/05/31 06:05:47;;;;;;;;;;;15.00;93.60;;;;;;4984629;28;19910;-84
2022/05/31 06:08:22;;;;;;;;;;;15.10;93.40;;;;;;4984400;28;19906;-84
2022/05/31 06:10:54;;;;;;;;;;;15.10;93.30;;;;;;4984370;28;20094;-84
2022/05/31 06:13:23;;;;;;;;;;;15.20;93.30;;;;;;4984532;28;19906;-84
2022/05/31 06:15:52;;;;;;;;;;;15.20;93.30;;;;;;4984162;28;19912;-84
2022/05/31 06:18:20;;;;;;;;;;;15.30;92.90;;;;;;4984402;28;19921;-84
2022/05/31 06:20:48;;;;;;;;;;;15.40;93.20;;;;;;4984341;28;19913;-84
2022/05/31 06:23:14;;;;;;;;;;;15.50;92.90;;;;;;4984556;28;20001;-84
2022/05/31 06:25:39;;;;;;;;;;;15.60;92.40;;;;;;4985300;28;19907;-84
2022/05/31 06:28:05;;;;;;;;;;;15.70;92.40;;;;;;4985149;28;19961;-84
2022/05/31 06:30:30;;;;;;;;;;;15.70;92.60;;;;;;4985057;28;20079;-84
2022/05/31 06:32:56;;;;;;;;;;;15.70;92.90;;;;;;4985401;28;19913;-84
2022/05/31 06:35:21;;;;;;;;;;;15.70;92.50;;;;;;4985290;28;19913;-84
2022/05/31 06:37:47;;;;;;;;;;;15.70;92.20;;;;;;4985210;28;20273;-84
2022/05/31 06:40:13;;;;;;;;;;;15.60;92.60;;;;;;4985252;28;19917;-84
2022/05/31 06:42:38;;;;;;;;;;;15.70;92.70;;;;;;4985091;28;19983;-84
2022/05/31 06:45:04;;;;;;;;;;;15.70;92.30;;;;;;4985269;28;19957;-84
2022/05/31 06:47:29;;;;;;;;;;;15.70;92.60;;;;;;4988599;28;19906;-84
2022/05/31 06:49:55;;;;;;;;;;;15.70;92.90;;;;;;4988603;28;19975;-84
2022/05/31 06:57:49;;;;;;;;;;;15.80;92.20;;;;;;4988336;28;19922;-84
2022/05/31 07:00:16;;;;;;;;;;;15.90;92.40;;;;;;4987614;28;19906;-84
2022/05/31 07:02:41;;;;;;;;;;;15.90;92.00;;;;;;4987104;28;19977;-84
2022/05/31 07:05:07;;;;;;;;;;;15.90;92.30;;;;;;4987894;28;19906;-84
2022/05/31 07:07:34;;;;;;;;;;;15.90;92.30;;;;;;4987329;28;19910;-84
2022/05/31 07:10:00;;;;;;;;;;;15.90;92.30;;;;;;4988480;28;19906;-84
2022/05/31 07:12:26;;;;;;;;;;;15.80;92.70;;;;;;4986976;28;19914;-84
2022/05/31 07:14:52;;;;;;;;;;;15.90;92.60;;;;;;4987426;28;19906;-84
2022/05/31 07:17:17;;;;;;;;;;;16.00;92.10;;;;;;4987293;28;19998;-84
2022/05/31 07:19:43;;;;;;;;;;;16.00;91.80;;;;;;4986887;28;20106;-84
2022/05/31 07:22:08;;;;;;;;;;;16.10;91.90;;;;;;4986768;28;19914;-83
2022/05/31 07:24:34;;;;;;;;;;;16.00;92.40;;;;;;4986883;28;19906;-84
2022/05/31 07:26:59;;;;;;;;;;;16.10;92.40;;;;;;4986701;28;20082;-84
2022/05/31 07:29:25;;;;;;;;;;;16.10;92.10;;;;;;4986877;28;20242;-84
2022/05/31 07:31:51;;;;;;;;;;;16.10;91.90;;;;;;4986494;28;19941;-84
2022/05/31 07:34:16;;;;;;;;;;;16.10;92.50;;;;;;4987641;28;19985;-84
2022/05/31 07:36:43;;;;;;;;;;;16.30;92.40;;;;;;4987749;28;19915;-84
2022/05/31 07:39:09;;;;;;;;;;;16.40;91.90;;;;;;4987156;28;19910;-84
2022/05/31 07:41:35;;;;;;;;;;;16.50;91.50;;;;;;4986797;28;19926;-84
2022/05/31 07:44:00;;;;;;;;;;;16.60;91.60;;;;;;4987317;28;19906;-84
2022/05/31 07:46:27;;;;;;;;;;;16.80;91.50;;;;;;4987096;28;19906;-83
2022/05/31 07:48:53;;;;;;;;;;;16.80;91.40;;;;;;4986588;28;19953;-85
2022/05/31 07:51:18;;;;;;;;;;;16.80;91.60;;;;;;4981041;28;19914;-86
2022/05/31 07:53:44;;;;;;;;;;;17.00;90.90;;;;;;4977005;28;20385;-85
2022/05/31 07:56:10;;;;;;;;;;;17.10;90.80;;;;;;4976795;28;20004;-85
2022/05/31 07:58:36;;;;;;;;;;;17.30;90.40;;;;;;4976746;28;19918;-85
2022/05/31 08:01:13;;;;;;;;;;;17.50;89.60;;;;;;4976633;28;19946;-85
2022/05/31 08:03:38;;;;;;;;;;;17.40;89.90;;;;;;4976847;28;19911;-86
2022/05/31 08:06:06;;;;;;;;;;;17.60;89.50;;;;;;4976831;28;19910;-86
2022/05/31 08:08:32;;;;;;;;;;;17.70;89.80;;;;;;4976923;28;20448;-85
2022/05/31 08:11:01;;;;;;;;;;;17.80;89.20;;;;;;4976847;28;19933;-86
2022/05/31 08:13:27;;;;;;;;;;;18.00;90.00;;;;;;4976777;28;19916;-85
2022/05/31 08:15:56;;;;;;;;;;;18.10;86.30;;;;;;4976638;28;19910;-88
2022/05/31 08:18:21;;;;;;;;;;;18.00;85.50;;;;;;4976441;28;19965;-85
2022/05/31 08:20:47;;;;;;;;;;;18.10;84.50;;;;;;4976210;28;19917;-85
2022/05/31 08:23:12;;;;;;;;;;;18.20;86.00;;;;;;4976479;28;19976;-83
2022/05/31 08:25:38;;;;;;;;;;;18.30;86.10;;;;;;4985757;28;19906;-84
2022/05/31 08:28:04;;;;;;;;;;;18.40;84.30;;;;;;4986403;28;19910;-84
2022/05/31 08:30:30;;;;;;;;;;;18.50;82.70;;;;;;4986348;28;19911;-84
2022/05/31 08:32:55;;;;;;;;;;;18.60;82.60;;;;;;4980603;28;19918;-84
2022/05/31 08:35:21;;;;;;;;;;;18.70;83.10;;;;;;4976100;28;20367;-85
2022/05/31 08:37:46;;;;;;;;;;;18.90;83.50;;;;;;4974744;28;19918;-84
2022/05/31 08:40:12;;;;;;;;;;;18.90;82.10;;;;;;4975975;28;20067;-84
2022/05/31 08:42:44;;;;;;;;;;;19.00;82.30;;;;;;4976121;28;20005;-84
2022/05/31 08:45:18;;;;;;;;;;;19.00;82.30;;;;;;4976664;28;20251;-85
2022/05/31 08:47:49;;;;;;;;;;;19.20;79.80;;;;;;4976287;28;19910;-85
2022/05/31 08:53:27;;;;;;;;;;;19.40;80.30;;;;;;4976260;28;19917;-84
2022/05/31 08:58:46;;;;;;;;;;;19.60;78.40;;;;;;4977789;28;19973;-85
2022/05/31 09:01:14;;;;;;;;;;;19.70;77.70;;;;;;4976308;28;19914;-84
2022/05/31 09:03:46;;;;;;;;;;;19.90;76.80;;;;;;4976566;28;19914;-84
2022/05/31 09:06:17;;;;;;;;;;;20.00;77.10;;;;;;4976166;28;19910;-87
2022/05/31 09:08:50;;;;;;;;;;;20.10;75.70;;;;;;4976803;28;20001;-85
2022/05/31 09:11:30;;;;;;;;;;;20.20;76.10;;;;;;4976775;28;20247;-85
2022/05/31 09:14:08;;;;;;;;;;;20.30;73.80;;;;;;4975532;28;19914;-84
2022/05/31 09:16:36;;;;;;;;;;;20.30;74.20;;;;;;4975273;28;19918;-84
2022/05/31 09:19:05;;;;;;;;;;;20.40;72.50;;;;;;4975479;28;19946;-85
2022/05/31 09:21:40;;;;;;;;;;;20.40;73.90;;;;;;4975382;28;20330;-85
2022/05/31 09:24:26;;;;;;;;;;;20.50;73.20;;;;;;4975420;28;19917;-84
2022/05/31 09:26:58;;;;;;;;;;;20.50;71.30;;;;;;4974630;28;19917;-85
2022/05/31 09:29:33;;;;;;;;;;;20.50;71.20;;;;;;4975282;28;19910;-84
2022/05/31 09:32:00;;;;;;;;;;;20.60;72.30;;;;;;4975226;28;20389;-85
2022/05/31 09:34:34;;;;;;;;;;;20.70;70.50;;;;;;4975187;28;19914;-85
2022/05/31 09:37:06;;;;;;;;;;;20.80;70.50;;;;;;4975195;28;19918;-85
2022/05/31 09:39:53;;;;;;;;;;;20.90;70.90;;;;;;4975597;28;19965;-85
2022/05/31 09:42:21;;;;;;;;;;;20.90;71.20;;;;;;4975147;28;19922;-84
2022/05/31 09:44:50;;;;;;;;;;;21.00;71.50;;;;;;4975303;28;19910;-84
2022/05/31 09:47:24;;;;;;;;;;;21.00;72.00;;;;;;4974994;28;20723;-85
2022/05/31 09:49:52;;;;;;;;;;;21.10;69.70;;;;;;4974484;28;20298;-84
2022/05/31 09:52:17;;;;;;;;;;;21.10;69.80;;;;;;4974984;28;19910;-85
2022/05/31 09:57:50;;;;;;;;;;;21.10;69.40;;;;;;4974944;28;19925;-85
2022/05/31 10:00:18;;;;;;;;;;;21.30;70.40;;;;;;4974962;28;19910;-84
2022/05/31 10:02:44;;;;;;;;;;;21.40;70.50;;;;;;4974958;28;19917;-84
2022/05/31 10:05:09;;;;;;;;;;;21.50;70.70;;;;;;4974945;28;20318;-84
2022/05/31 10:07:37;;;;;;;;;;;21.50;71.50;;;;;;4974714;28;19914;-84
2022/05/31 10:10:07;;;;;;;;;;;21.50;71.30;;;;;;4974888;28;20363;-84
2022/05/31 10:12:34;;;;;;;;;;;21.40;71.00;;;;;;4974645;28;19996;-84
2022/05/31 10:15:03;;;;;;;;;;;21.40;71.60;;;;;;4975047;28;19910;-84
2022/05/31 10:17:42;;;;;;;;;;;21.40;73.00;;;;;;4974852;28;19973;-84
2022/05/31 10:20:13;;;;;;;;;;;21.50;69.90;;;;;;4976398;28;19919;-84
2022/05/31 10:22:49;;;;;;;;;;;21.30;71.70;;;;;;4978597;28;19910;-84
2022/05/31 10:25:23;;;;;;;;;;;21.30;71.40;;;;;;4978579;28;19916;-84
2022/05/31 10:27:54;;;;;;;;;;;21.30;70.70;;;;;;4978486;28;20001;-84
2022/05/31 10:30:23;;;;;;;;;;;21.30;70.30;;;;;;4978685;28;19910;-84
2022/05/31 10:32:56;;;;;;;;;;;21.40;70.20;;;;;;4978631;28;19925;-84
2022/05/31 10:35:25;;;;;;;;;;;21.50;69.90;;;;;;4978565;28;19917;-84
2022/05/31 10:38:03;;;;;;;;;;;21.50;70.30;;;;;;4978505;28;19917;-84
2022/05/31 10:40:49;;;;;;;;;;;21.50;70.50;;;;;;4978017;28;20383;-83
2022/05/31 10:43:25;;;;;;;;;;;21.50;71.80;;;;;;4978937;28;19910;-83
2022/05/31 10:45:51;;;;;;;;;;;21.40;71.60;;;;;;4978187;28;19910;-83
2022/05/31 10:48:17;;;;;;;;;;;21.40;71.90;;;;;;4978340;28;20394;-83
2022/05/31 10:50:45;;;;;;;;;;;21.50;72.30;;;;;;4978288;28;19957;-83
2022/05/31 10:53:17;;;;;;;;;;;21.40;72.20;;;;;;4978179;28;19956;-83
2022/05/31 10:55:48;;;;;;;;;;;21.50;71.80;;;;;;4978731;28;19926;-83
2022/05/31 10:58:38;;;;;;;;;;;21.70;69.50;;;;;;4977918;28;20434;-83
2022/05/31 11:01:12;;;;;;;;;;;21.70;68.80;;;;;;4978093;28;19910;-83
2022/05/31 11:03:37;;;;;;;;;;;21.70;69.60;;;;;;4978019;28;19934;-84
2022/05/31 11:06:32;;;;;;;;;;;21.70;69.30;;;;;;4978062;28;19910;-83
2022/05/31 11:12:13;;;;;;;;;;;21.60;70.20;;;;;;4988376;28;19982;-83
2022/05/31 11:14:50;;;;;;;;;;;21.70;70.90;;;;;;4988555;28;20237;-84
2022/05/31 11:17:19;;;;;;;;;;;21.90;69.30;;;;;;4987619;28;19914;-83
2022/05/31 11:19:50;;;;;;;;;;;22.10;68.40;;;;;;4987713;28;20198;-82
2022/05/31 11:22:27;;;;;;;;;;;22.20;68.90;;;;;;4987973;28;19906;-84
2022/05/31 11:25:25;;;;;;;;;;;22.30;67.80;;;;;;4987886;28;19906;-82
2022/05/31 11:28:03;;;;;;;;;;;22.30;69.10;;;;;;4955142;28;19969;-82
2022/05/31 11:30:38;;;;;;;;;;;22.10;68.00;;;;;;4986838;28;19929;-82
2022/05/31 11:33:22;;;;;;;;;;;22.30;69.30;;;;;;4986078;28;19929;-84
2022/05/31 11:35:47;;;;;;;;;;;22.50;69.50;;;;;;4986434;28;20182;-84
2022/05/31 11:38:16;;;;;;;;;;;22.80;66.50;;;;;;4977455;28;19927;-84
2022/05/31 11:40:46;;;;;;;;;;;22.90;68.00;;;;;;4977076;28;19922;-84
2022/05/31 11:43:27;;;;;;;;;;;22.90;68.50;;;;;;4977240;28;19941;-84
2022/05/31 11:46:08;;;;;;;;;;;23.00;67.50;;;;;;4977196;28;19910;-84
2022/05/31 11:48:39;;;;;;;;;;;23.00;66.70;;;;;;4977808;28;19918;-84
2022/05/31 11:51:10;;;;;;;;;;;22.90;66.80;;;;;;4977221;28;19910;-84
2022/05/31 11:53:39;;;;;;;;;;;23.00;66.90;;;;;;4977083;28;19925;-84
2022/05/31 11:56:07;;;;;;;;;;;22.70;69.90;;;;;;4977021;28;20366;-85
2022/05/31 11:58:45;;;;;;;;;;;22.80;69.40;;;;;;4976747;28;20386;-84
2022/05/31 12:01:22;;;;;;;;;;;22.90;68.00;;;;;;4976924;28;19910;-84
2022/05/31 12:03:51;;;;;;;;;;;23.00;68.50;;;;;;4976941;28;20391;-84
2022/05/31 12:06:27;;;;;;;;;;;23.30;68.20;;;;;;4976997;28;20424;-84
2022/05/31 12:08:58;;;;;;;;;;;23.20;68.40;;;;;;4977109;28;19910;-85
2022/05/31 12:11:27;;;;;;;;;;;23.20;67.60;;;;;;4976798;28;19918;-84
2022/05/31 12:13:53;;;;;;;;;;;23.30;67.90;;;;;;4991579;28;20264;-85
2022/05/31 12:16:19;;;;;;;;;;;23.60;67.10;;;;;;4976758;28;19917;-85
2022/05/31 12:18:49;;;;;;;;;;;23.70;65.30;;;;;;4975262;28;20334;-85
2022/05/31 12:21:29;;;;;;;;;;;23.80;65.50;;;;;;4976393;28;20302;-85
2022/05/31 12:24:13;;;;;;;;;;;24.00;64.10;;;;;;4976346;28;19914;-85
2022/05/31 12:26:44;;;;;;;;;;;24.00;64.40;;;;;;4976806;28;19954;-85
2022/05/31 12:29:11;;;;;;;;;;;24.20;65.50;;;;;;4976245;28;19910;-84
2022/05/31 12:31:38;;;;;;;;;;;24.20;64.70;;;;;;4976848;28;19917;-85
2022/05/31 12:34:33;;;;;;;;;;;24.50;65.00;;;;;;4976300;28;19910;-84
2022/05/31 12:37:02;;;;;;;;;;;24.80;63.50;;;;;;4953231;28;19914;-83
2022/05/31 12:39:30;;;;;;;;;;;25.20;62.80;;;;;;4976263;28;19914;-83
2022/05/31 12:41:57;;;;;;;;;;;24.90;64.10;;;;;;4975773;28;19926;-84
2022/05/31 12:44:34;;;;;;;;;;;24.50;64.40;;;;;;4957827;28;20383;-84
2022/05/31 12:47:18;;;;;;;;;;;24.40;64.40;;;;;;4976312;28;19910;-86
2022/05/31 12:49:49;;;;;;;;;;;24.60;64.70;;;;;;4976149;28;19910;-86
2022/05/31 12:55:01;;;;;;;;;;;24.80;65.20;;;;;;4975277;28;19910;-86
2022/05/31 13:00:41;;;;;;;;;;;24.60;64.10;;;;;;4975696;28;19966;-85
2022/05/31 13:03:33;;;;;;;;;;;24.60;63.50;;;;;;4975622;28;19992;-86
2022/05/31 13:06:11;;;;;;;;;;;25.00;62.80;;;;;;5050491;27;2265035;-85
2022/05/31 13:08:49;;;;;;;;;;;25.30;63.40;;;;;;5132320;28;20333;-85
2022/05/31 13:20:09;;;;;;;;;;;25.40;64.20;;;;;;5131984;28;19934;-85
2022/05/31 13:22:39;;;;;;;;;;;25.40;64.80;;;;;;5131932;28;20020;-85
2022/05/31 13:25:09;;;;;;;;;;;25.20;63.80;;;;;;5131753;28;19991;-85
2022/05/31 13:27:36;;;;;;;;;;;25.40;64.40;;;;;;5131701;28;20359;-85
2022/05/31 13:30:09;;;;;;;;;;;25.60;64.90;;;;;;5131803;28;19957;-85
2022/05/31 13:32:36;;;;;;;;;;;26.50;63.50;;;;;;5132045;28;19939;-85
2022/05/31 13:35:05;;;;;;;;;;;26.70;62.80;;;;;;5131765;28;19915;-85
2022/05/31 13:37:31;;;;;;;;;;;27.30;63.00;;;;;;5131542;28;19907;-85
2022/05/31 13:39:58;;;;;;;;;;;29.00;60.10;;;;;;5131337;28;20279;-85
2022/05/31 13:42:30;;;;;;;;;;;29.30;59.30;;;;;;5131279;28;19912;-85
2022/05/31 13:45:02;;;;;;;;;;;28.80;60.40;;;;;;5112756;28;20291;-85
2022/05/31 13:47:28;;;;;;;;;;;28.40;61.20;;;;;;5131440;28;19914;-85
2022/05/31 13:50:03;;;;;;;;;;;28.50;60.70;;;;;;5131282;28;20345;-85
2022/05/31 13:52:31;;;;;;;;;;;28.40;60.70;;;;;;5112943;28;20283;-85
2022/05/31 13:55:13;;;;;;;;;;;28.50;59.30;;;;;;5131217;28;19908;-85
2022/05/31 13:57:48;;;;;;;;;;;29.10;60.60;;;;;;5131188;28;19943;-85
2022/05/31 14:00:13;;;;;;;;;;;29.60;59.60;;;;;;5112572;28;20382;-85
2022/05/31 14:03:00;;;;;;;;;;;29.90;59.60;;;;;;5112572;28;19908;-85
2022/05/31 14:05:29;;;;;;;;;;;30.50;59.60;;;;;;5130650;28;19920;-85
2022/05/31 14:07:55;;;;;;;;;;;30.30;57.80;;;;;;5130978;28;19919;-84
2022/05/31 14:10:25;;;;;;;;;;;30.40;58.60;;;;;;5130924;28;20268;-85
2022/05/31 14:12:57;;;;;;;;;;;29.90;59.40;;;;;;5112353;28;19998;-85
2022/05/31 14:15:23;;;;;;;;;;;30.20;58.50;;;;;;5129206;28;19908;-85
2022/05/31 14:17:49;;;;;;;;;;;30.90;57.30;;;;;;5098415;28;19914;-85
2022/05/31 14:20:18;;;;;;;;;;;30.80;58.30;;;;;;5116904;28;19908;-85
2022/05/31 14:22:44;;;;;;;;;;;31.30;57.30;;;;;;5116902;28;20003;-85
2022/05/31 14:25:10;;;;;;;;;;;31.10;58.00;;;;;;5116868;28;19916;-85
2022/05/31 14:27:38;;;;;;;;;;;31.20;57.00;;;;;;5116926;28;19908;-85
2022/05/31 14:30:05;;;;;;;;;;;31.70;57.00;;;;;;5116889;28;20065;-85
2022/05/31 14:32:35;;;;;;;;;;;32.00;57.20;;;;;;5117158;28;19907;-85
2022/05/31 14:35:00;;;;;;;;;;;31.20;56.80;;;;;;5117038;28;19908;-85
2022/05/31 14:37:28;;;;;;;;;;;31.30;56.90;;;;;;5116645;28;20051;-86
2022/05/31 14:40:03;;;;;;;;;;;30.50;58.00;;;;;;5116682;28;19907;-85
2022/05/31 14:42:31;;;;;;;;;;;30.10;58.80;;;;;;5116529;28;20283;-85
2022/05/31 14:44:57;;;;;;;;;;;29.60;58.30;;;;;;5097956;28;19958;-85
2022/05/31 14:47:23;;;;;;;;;;;28.70;59.20;;;;;;5116474;28;19907;-85
2022/05/31 14:49:52;;;;;;;;;;;28.20;59.70;;;;;;5116420;28;20006;-85
2022/05/31 14:52:17;;;;;;;;;;;28.50;60.20;;;;;;5116602;28;19907;-86
2022/05/31 14:54:44;;;;;;;;;;;29.40;58.40;;;;;;5116538;28;19953;-86
2022/05/31 14:57:11;;;;;;;;;;;29.60;59.10;;;;;;5116601;28;20420;-85
2022/05/31 14:59:37;;;;;;;;;;;29.60;57.80;;;;;;5116516;28;19908;-85
2022/05/31 15:02:04;;;;;;;;;;;29.60;58.50;;;;;;5116167;28;20006;-85
2022/05/31 15:04:43;;;;;;;;;;;29.20;57.50;;;;;;5115889;28;20444;-85